aviador You're here:

LFPT Decoded Metar

PONTOISE in FRANCE
Report Time2018-06-25 06:00:00
UTC Time2018-06-25 06:11:06
Flight Rules vfr VFR
Wind040° at 08 kt
W.Decomp.*RWY 05: 7.9 kt HW 1.3 kt LCW
RWY 12: 1.5 kt HW 7.9 kt LCW
W.Rank040° ranks 16
Current wind is above 040° avg. (6.5)
Visibility9999 m
Phenomena:N/A
Clouds:N/A
Expected CloudBase > 2,400 ft AGL from Temp-Dew spread
CeilingNone
Temp15°C (ISA +1)
Dew Point09°C (68% RH)
AAT11.9°C
QNH1024 hPa
Density Alt187 ft
Elevation325 ft
Report Wrong Elevation
Raw Report
METAR LFPT 250600Z AUTO 04008KT CAVOK 15/09 Q1024=

Extra information for LFPT:More info

Metar Taf Metar & Taf Last 4 Metars F.Rules Stats Wind Profile Meteogram Temp Stats Airport Information Weather charts Add Link Nearby VenuesMetar ALERT Operation Metar Decoded Social comments